Carnival Valor — H3VR — position and weather

sailwx.info

Track history (hours):
 
Tides and Currents Weather Stations Pressure Air Temp Water Temp Dewpoint Dewpoint Depression Visibility Wind Speed Wind Dir Waves Ship Positions

Carnival Valor

Last reported at 2018-Jun-23 23:50 UTC. Time now 2018-Jun-25 00:40 UTC.
Position N 20°36' W 086°57'.

Type: Ship. MMSI: 354298000.

Date/timePositionNaut miles runAvg speedWind from/ knotsBaromVisibWave heightAir tempDewpointWater temp
2018-Jun-23 23:50N 20°36' W 086°57'617.8
2018-Jun-23 23:30N 20°31' W 086°60'3 5.2
2018-Jun-23 23:00N 20°29' W 086°59'0 0.0
2018-Jun-23 22:30N 20°29' W 086°59'0 0.0
2018-Jun-23 21:56N 20°29' W 086°59'0 0.0
2018-Jun-23 21:29N 20°29' W 086°59'0 0.0
2018-Jun-23 20:59N 20°29' W 086°59'0 0.0
2018-Jun-23 20:29N 20°29' W 086°59'0 0.0
2018-Jun-23 19:59N 20°29' W 086°59'0 0.0
2018-Jun-23 19:25N 20°29' W 086°59'0 0.0
2018-Jun-23 18:58N 20°29' W 086°59'0 0.0
2018-Jun-23 18:28N 20°29' W 086°59'0 0.0
2018-Jun-23 17:58N 20°29' W 086°59'0 0.0
2018-Jun-23 17:25N 20°29' W 086°59'0 0.0
2018-Jun-23 17:00N 20°29' W 086°59'0 0.0
2018-Jun-23 16:30N 20°29' W 086°59'0 0.0
2018-Jun-23 16:00N 20°29' W 086°59'0 0.0
2018-Jun-23 15:30N 20°29' W 086°59'0 0.0
2018-Jun-23 14:59N 20°29' W 086°59'0 0.0
2018-Jun-23 14:29N 20°29' W 086°59'0 0.0
2018-Jun-23 13:59N 20°29' W 086°59'0 0.1
2018-Jun-23 13:30N 20°29' W 086°59'3 6.0
2018-Jun-23 13:00N 20°32' W 086°59'611.8
2018-Jun-23 12:31N 20°37' W 086°55'714.7
2018-Jun-23 12:00N 20°43' W 086°51'57617.7
2018-Jun-22 03:28N 28°24' W 093°10'1018.0
2018-Jun-22 02:54N 28°29' W 093°19'817.5
2018-Jun-22 02:28N 28°33' W 093°27'817.7
2018-Jun-22 02:00N 28°38' W 093°34'917.6
2018-Jun-22 01:30N 28°43' W 093°42'918.0
2018-Jun-22 01:00N 28°49' W 093°51'918.0
2018-Jun-22 00:30N 28°54' W 093°59'917.8
2018-Jun-22 00:00N 28°59' W 094°07'917.0
2018-Jun-21 23:30N 29°04' W 094°15'815.5
2018-Jun-21 23:00N 29°08' W 094°23'815.0
2018-Jun-21 22:30N 29°12' W 094°30'714.8
2018-Jun-21 22:00N 29°17' W 094°37'613.2
2018-Jun-21 21:30N 29°21' W 094°42'5 9.8
2018-Jun-21 21:00N 29°19' W 094°48'0 0.4
2018-Jun-21 20:26N 29°19' W 094°48'0 0.0
2018-Jun-21 19:59N 29°19' W 094°48'0 0.0
2018-Jun-21 19:30N 29°19' W 094°48'0 0.0
2018-Jun-21 19:00N 29°19' W 094°48'0 0.0
2018-Jun-21 18:30N 29°19' W 094°48'0 0.0
2018-Jun-21 18:00N 29°19' W 094°48'0 0.0
2018-Jun-21 17:30N 29°19' W 094°48'0 0.0
2018-Jun-21 17:00N 29°19' W 094°48'0 0.0
2018-Jun-21 16:30N 29°19' W 094°48'0 0.0
2018-Jun-21 16:00N 29°19' W 094°48'0 0.0
2018-Jun-21 15:30N 29°19' W 094°48'0 0.0
2018-Jun-21 15:00N 29°19' W 094°48'0 0.0
2018-Jun-21 14:30N 29°19' W 094°48'0 0.0
2018-Jun-21 14:00N 29°19' W 094°48'0 0.0
2018-Jun-21 13:30N 29°19' W 094°48'0 0.0
2018-Jun-21 13:00N 29°19' W 094°48'0 0.0
2018-Jun-21 12:30N 29°19' W 094°48'1 2.4
2018-Jun-21 12:00N 29°19' W 094°47'5 9.8
2018-Jun-21 11:31N 29°20' W 094°41'713.7
2018-Jun-21 11:00N 29°17' W 094°35'510.0
2018-Jun-21 10:30N 29°14' W 094°30'612.1
2018-Jun-21 09:59N 29°09' W 094°25'812.2
2018-Jun-21 09:22N 29°02' W 094°25'612.2
2018-Jun-21 08:52N 28°56' W 094°25'513.6
2018-Jun-21 08:28N 28°50' W 094°25'715.7
2018-Jun-21 08:00N 28°43' W 094°25'915.3
2018-Jun-21 07:26N 28°34' W 094°25'45815.7
2018-Jun-20 02:19N 22°00' W 090°06'616.2
2018-Jun-20 01:57N 21°56' W 090°02'716.1
2018-Jun-20 01:29N 21°50' W 089°57'815.5
2018-Jun-20 01:00N 21°43' W 089°53'816.3
2018-Jun-20 00:30N 21°36' W 089°48'815.9
2018-Jun-20 00:01N 21°29' W 089°44'612.5
2018-Jun-19 23:30N 21°24' W 089°41'3 6.1
2018-Jun-19 22:58N 21°21' W 089°41'0 0.0
2018-Jun-19 22:26N 21°21' W 089°41'0 0.0
2018-Jun-19 21:54N 21°21' W 089°41'0 0.0
2018-Jun-19 21:30N 21°21' W 089°41'0 0.0
2018-Jun-19 20:49N 21°21' W 089°41'0 0.0
2018-Jun-19 20:28N 21°21' W 089°41'0 0.0
2018-Jun-19 20:00N 21°21' W 089°41'0 0.0
2018-Jun-19 19:24N 21°21' W 089°41'0 0.0
2018-Jun-19 18:56N 21°21' W 089°41'0 0.0
2018-Jun-19 18:29N 21°21' W 089°41'0 0.0
2018-Jun-19 17:59N 21°21' W 089°41'0 0.0
2018-Jun-19 17:29N 21°21' W 089°41'0 0.0
2018-Jun-19 16:54N 21°21' W 089°41'0 0.0
2018-Jun-19 16:28N 21°21' W 089°41'0 0.0
2018-Jun-19 15:55N 21°21' W 089°41'0 0.0
2018-Jun-19 15:27N 21°21' W 089°41'0 0.0
2018-Jun-19 14:58N 21°21' W 089°41'0 0.3
2018-Jun-19 14:29N 21°20' W 089°41'4 7.5
2018-Jun-19 14:00N 21°24' W 089°41'5 9.9
2018-Jun-19 13:30N 21°28' W 089°38'816.9
2018-Jun-19 13:00N 21°36' W 089°34'918.0
2018-Jun-19 12:30N 21°42' W 089°28'918.9
2018-Jun-19 12:00N 21°45' W 089°18'14811.9
2018-Jun-18 23:32N 20°36' W 086°58'019.4
2018-Jun-18 23:30N 20°35' W 086°58'613.0
2018-Jun-18 23:01N 20°29' W 086°59'0 0.7
2018-Jun-18 22:29N 20°29' W 086°59'0 0.0
2018-Jun-18 21:58N 20°29' W 086°59'0 0.0
2018-Jun-18 21:28N 20°29' W 086°59'0 0.0
2018-Jun-18 20:58N 20°29' W 086°59'0 0.0
2018-Jun-18 20:28N 20°29' W 086°59'0 0.0
2018-Jun-18 19:58N 20°29' W 086°59'0 0.0
2018-Jun-18 19:30N 20°29' W 086°59'0 0.0
2018-Jun-18 19:00N 20°29' W 086°59'0 0.0
2018-Jun-18 18:30N 20°29' W 086°59'0 0.0
2018-Jun-18 17:57N 20°29' W 086°59'0 0.0
2018-Jun-18 17:29N 20°29' W 086°59'0 0.0
2018-Jun-18 16:59N 20°29' W 086°59'0 0.0
2018-Jun-18 16:29N 20°29' W 086°59'0 0.0
2018-Jun-18 15:59N 20°29' W 086°59'0 0.0
2018-Jun-18 15:29N 20°29' W 086°59'0 0.0
2018-Jun-18 14:58N 20°29' W 086°59'0 0.0
2018-Jun-18 14:28N 20°29' W 086°59'0 0.0
2018-Jun-18 13:58N 20°29' W 086°59'1 1.4
2018-Jun-18 13:30N 20°29' W 086°59'5 9.1
2018-Jun-18 13:00N 20°34' W 086°58'816.4
2018-Jun-18 12:30N 20°40' W 086°53'66317.6
2018-Jun-16 22:53N 29°15' W 094°34'511.5
2018-Jun-16 22:29N 29°18' W 094°38'612.3
2018-Jun-16 22:00N 29°21' W 094°44'4 6.7
2018-Jun-16 21:22N 29°19' W 094°48'0 0.0
2018-Jun-16 20:55N 29°19' W 094°48'0 0.0
2018-Jun-16 20:28N 29°19' W 094°48'0 0.0
2018-Jun-16 19:58N 29°19' W 094°48'0 0.0
2018-Jun-16 19:27N 29°19' W 094°48'0 0.0
2018-Jun-16 18:57N 29°19' W 094°48'0 0.0
2018-Jun-16 18:27N 29°19' W 094°48'0 0.0
2018-Jun-16 18:00N 29°19' W 094°48'0 0.0
2018-Jun-16 17:30N 29°19' W 094°48'0 0.0
2018-Jun-16 16:59N 29°19' W 094°48'0 0.0
2018-Jun-16 16:30N 29°19' W 094°48'0 0.0
2018-Jun-16 16:01N 29°19' W 094°48'0 0.0
2018-Jun-16 15:31N 29°19' W 094°48'0 0.0
2018-Jun-16 15:00N 29°19' W 094°48'0 0.0
2018-Jun-16 14:30N 29°19' W 094°48'0 0.0
2018-Jun-16 14:01N 29°19' W 094°48'0 0.0
2018-Jun-16 13:31N 29°19' W 094°48'0 0.0
2018-Jun-16 13:00N 29°19' W 094°48'0 0.0
2018-Jun-16 12:30N 29°19' W 094°48'1 2.2
2018-Jun-16 12:00N 29°19' W 094°47'29 9.3
2018-Jun-16 08:51N 28°57' W 094°25'512.5
2018-Jun-16 08:27N 28°52' W 094°25'48615.7
2018-Jun-15 01:26N 21°50' W 089°58'715.7
2018-Jun-15 01:00N 21°45' W 089°54'816.1
2018-Jun-15 00:30N 21°38' W 089°49'815.8
2018-Jun-15 00:00N 21°32' W 089°44'714.2
2018-Jun-14 23:30N 21°25' W 089°41'5 7.6
2018-Jun-14 22:53N 21°21' W 089°41'0 0.0
2018-Jun-14 22:23N 21°21' W 089°41'0 0.0
2018-Jun-14 21:41N 21°21' W 089°41'0 0.0
2018-Jun-14 21:28N 21°21' W 089°41'0 0.0
2018-Jun-14 20:58N 21°21' W 089°41'0 0.0
2018-Jun-14 20:28N 21°21' W 089°41'0 0.0
2018-Jun-14 19:57N 21°21' W 089°41'0 0.0
2018-Jun-14 19:28N 21°21' W 089°41'0 0.0
2018-Jun-14 19:00N 21°21' W 089°41'0 0.0
2018-Jun-14 18:30N 21°21' W 089°41'0 0.0
2018-Jun-14 18:00N 21°21' W 089°41'0 0.0
2018-Jun-14 17:28N 21°21' W 089°41'0 0.0
2018-Jun-14 17:00N 21°21' W 089°41'0 0.0
2018-Jun-14 16:30N 21°21' W 089°41'0 0.0
2018-Jun-14 15:59N 21°21' W 089°41'0 0.0
2018-Jun-14 15:26N 21°21' W 089°41'0 0.0
2018-Jun-14 14:59N 21°21' W 089°41'0 0.1
2018-Jun-14 14:29N 21°21' W 089°41'3 6.0
2018-Jun-14 14:00N 21°23' W 089°41'611.7
2018-Jun-14 13:30N 21°29' W 089°40'918.3
2018-Jun-14 13:00N 21°37' W 089°34'1019.3
2018-Jun-14 12:30N 21°43' W 089°26'918.7
2018-Jun-14 11:59N 21°47' W 089°17'  
Track history (hours):
 
Tides and Currents Weather Stations Pressure Air Temp Water Temp Dewpoint Dewpoint Depression Visibility Wind Speed Wind Dir Waves Ship Positions

Carnival Valor

Last reported at 2018-Jun-23 23:50 UTC. Time now 2018-Jun-25 00:40 UTC.
Position N 20°36' W 086°57'.

Type: Ship. MMSI: 354298000.

Date/timePositionNaut miles runAvg speedWind from/ knotsBaromVisibWave heightAir tempDewpointWater temp
2018-Jun-23 23:50N 20°36' W 086°57'617.8
2018-Jun-23 23:30N 20°31' W 086°60'3 5.2
2018-Jun-23 23:00N 20°29' W 086°59'0 0.0
2018-Jun-23 22:30N 20°29' W 086°59'0 0.0
2018-Jun-23 21:56N 20°29' W 086°59'0 0.0
2018-Jun-23 21:29N 20°29' W 086°59'0 0.0
2018-Jun-23 20:59N 20°29' W 086°59'0 0.0
2018-Jun-23 20:29N 20°29' W 086°59'0 0.0
2018-Jun-23 19:59N 20°29' W 086°59'0 0.0
2018-Jun-23 19:25N 20°29' W 086°59'0 0.0
2018-Jun-23 18:58N 20°29' W 086°59'0 0.0
2018-Jun-23 18:28N 20°29' W 086°59'0 0.0
2018-Jun-23 17:58N 20°29' W 086°59'0 0.0
2018-Jun-23 17:25N 20°29' W 086°59'0 0.0
2018-Jun-23 17:00N 20°29' W 086°59'0 0.0
2018-Jun-23 16:30N 20°29' W 086°59'0 0.0
2018-Jun-23 16:00N 20°29' W 086°59'0 0.0
2018-Jun-23 15:30N 20°29' W 086°59'0 0.0
2018-Jun-23 14:59N 20°29' W 086°59'0 0.0
2018-Jun-23 14:29N 20°29' W 086°59'0 0.0
2018-Jun-23 13:59N 20°29' W 086°59'0 0.1
2018-Jun-23 13:30N 20°29' W 086°59'3 6.0
2018-Jun-23 13:00N 20°32' W 086°59'611.8
2018-Jun-23 12:31N 20°37' W 086°55'714.7
2018-Jun-23 12:00N 20°43' W 086°51'57617.7
2018-Jun-22 03:28N 28°24' W 093°10'1018.0
2018-Jun-22 02:54N 28°29' W 093°19'817.5
2018-Jun-22 02:28N 28°33' W 093°27'817.7
2018-Jun-22 02:00N 28°38' W 093°34'917.6
2018-Jun-22 01:30N 28°43' W 093°42'918.0
2018-Jun-22 01:00N 28°49' W 093°51'918.0
2018-Jun-22 00:30N 28°54' W 093°59'917.8
2018-Jun-22 00:00N 28°59' W 094°07'917.0
2018-Jun-21 23:30N 29°04' W 094°15'815.5
2018-Jun-21 23:00N 29°08' W 094°23'815.0
2018-Jun-21 22:30N 29°12' W 094°30'714.8
2018-Jun-21 22:00N 29°17' W 094°37'613.2
2018-Jun-21 21:30N 29°21' W 094°42'5 9.8
2018-Jun-21 21:00N 29°19' W 094°48'0 0.4
2018-Jun-21 20:26N 29°19' W 094°48'0 0.0
2018-Jun-21 19:59N 29°19' W 094°48'0 0.0
2018-Jun-21 19:30N 29°19' W 094°48'0 0.0
2018-Jun-21 19:00N 29°19' W 094°48'0 0.0
2018-Jun-21 18:30N 29°19' W 094°48'0 0.0
2018-Jun-21 18:00N 29°19' W 094°48'0 0.0
2018-Jun-21 17:30N 29°19' W 094°48'0 0.0
2018-Jun-21 17:00N 29°19' W 094°48'0 0.0
2018-Jun-21 16:30N 29°19' W 094°48'0 0.0
2018-Jun-21 16:00N 29°19' W 094°48'0 0.0
2018-Jun-21 15:30N 29°19' W 094°48'0 0.0
2018-Jun-21 15:00N 29°19' W 094°48'0 0.0
2018-Jun-21 14:30N 29°19' W 094°48'0 0.0
2018-Jun-21 14:00N 29°19' W 094°48'0 0.0
2018-Jun-21 13:30N 29°19' W 094°48'0 0.0
2018-Jun-21 13:00N 29°19' W 094°48'0 0.0
2018-Jun-21 12:30N 29°19' W 094°48'1 2.4
2018-Jun-21 12:00N 29°19' W 094°47'5 9.8
2018-Jun-21 11:31N 29°20' W 094°41'713.7
2018-Jun-21 11:00N 29°17' W 094°35'510.0
2018-Jun-21 10:30N 29°14' W 094°30'612.1
2018-Jun-21 09:59N 29°09' W 094°25'812.2
2018-Jun-21 09:22N 29°02' W 094°25'612.2
2018-Jun-21 08:52N 28°56' W 094°25'513.6
2018-Jun-21 08:28N 28°50' W 094°25'715.7
2018-Jun-21 08:00N 28°43' W 094°25'915.3
2018-Jun-21 07:26N 28°34' W 094°25'45815.7
2018-Jun-20 02:19N 22°00' W 090°06'616.2
2018-Jun-20 01:57N 21°56' W 090°02'716.1
2018-Jun-20 01:29N 21°50' W 089°57'815.5
2018-Jun-20 01:00N 21°43' W 089°53'816.3
2018-Jun-20 00:30N 21°36' W 089°48'815.9
2018-Jun-20 00:01N 21°29' W 089°44'612.5
2018-Jun-19 23:30N 21°24' W 089°41'3 6.1
2018-Jun-19 22:58N 21°21' W 089°41'0 0.0
2018-Jun-19 22:26N 21°21' W 089°41'0 0.0
2018-Jun-19 21:54N 21°21' W 089°41'0 0.0
2018-Jun-19 21:30N 21°21' W 089°41'0 0.0
2018-Jun-19 20:49N 21°21' W 089°41'0 0.0
2018-Jun-19 20:28N 21°21' W 089°41'0 0.0
2018-Jun-19 20:00N 21°21' W 089°41'0 0.0
2018-Jun-19 19:24N 21°21' W 089°41'0 0.0
2018-Jun-19 18:56N 21°21' W 089°41'0 0.0
2018-Jun-19 18:29N 21°21' W 089°41'0 0.0
2018-Jun-19 17:59N 21°21' W 089°41'0 0.0
2018-Jun-19 17:29N 21°21' W 089°41'0 0.0
2018-Jun-19 16:54N 21°21' W 089°41'0 0.0
2018-Jun-19 16:28N 21°21' W 089°41'0 0.0
2018-Jun-19 15:55N 21°21' W 089°41'0 0.0
2018-Jun-19 15:27N 21°21' W 089°41'0 0.0
2018-Jun-19 14:58N 21°21' W 089°41'0 0.3
2018-Jun-19 14:29N 21°20' W 089°41'4 7.5
2018-Jun-19 14:00N 21°24' W 089°41'5 9.9
2018-Jun-19 13:30N 21°28' W 089°38'816.9
2018-Jun-19 13:00N 21°36' W 089°34'918.0
2018-Jun-19 12:30N 21°42' W 089°28'918.9
2018-Jun-19 12:00N 21°45' W 089°18'14811.9
2018-Jun-18 23:32N 20°36' W 086°58'019.4
2018-Jun-18 23:30N 20°35' W 086°58'613.0
2018-Jun-18 23:01N 20°29' W 086°59'0 0.7
2018-Jun-18 22:29N 20°29' W 086°59'0 0.0
2018-Jun-18 21:58N 20°29' W 086°59'0 0.0
2018-Jun-18 21:28N 20°29' W 086°59'0 0.0
2018-Jun-18 20:58N 20°29' W 086°59'0 0.0
2018-Jun-18 20:28N 20°29' W 086°59'0 0.0
2018-Jun-18 19:58N 20°29' W 086°59'0 0.0
2018-Jun-18 19:30N 20°29' W 086°59'0 0.0
2018-Jun-18 19:00N 20°29' W 086°59'0 0.0
2018-Jun-18 18:30N 20°29' W 086°59'0 0.0
2018-Jun-18 17:57N 20°29' W 086°59'0 0.0
2018-Jun-18 17:29N 20°29' W 086°59'0 0.0
2018-Jun-18 16:59N 20°29' W 086°59'0 0.0
2018-Jun-18 16:29N 20°29' W 086°59'0 0.0
2018-Jun-18 15:59N 20°29' W 086°59'0 0.0
2018-Jun-18 15:29N 20°29' W 086°59'0 0.0
2018-Jun-18 14:58N 20°29' W 086°59'0 0.0
2018-Jun-18 14:28N 20°29' W 086°59'0 0.0
2018-Jun-18 13:58N 20°29' W 086°59'1 1.4
2018-Jun-18 13:30N 20°29' W 086°59'5 9.1
2018-Jun-18 13:00N 20°34' W 086°58'816.4
2018-Jun-18 12:30N 20°40' W 086°53'66317.6
2018-Jun-16 22:53N 29°15' W 094°34'511.5
2018-Jun-16 22:29N 29°18' W 094°38'612.3
2018-Jun-16 22:00N 29°21' W 094°44'4 6.7
2018-Jun-16 21:22N 29°19' W 094°48'0 0.0
2018-Jun-16 20:55N 29°19' W 094°48'0 0.0
2018-Jun-16 20:28N 29°19' W 094°48'0 0.0
2018-Jun-16 19:58N 29°19' W 094°48'0 0.0
2018-Jun-16 19:27N 29°19' W 094°48'0 0.0
2018-Jun-16 18:57N 29°19' W 094°48'0 0.0
2018-Jun-16 18:27N 29°19' W 094°48'0 0.0
2018-Jun-16 18:00N 29°19' W 094°48'0 0.0
2018-Jun-16 17:30N 29°19' W 094°48'0 0.0
2018-Jun-16 16:59N 29°19' W 094°48'0 0.0
2018-Jun-16 16:30N 29°19' W 094°48'0 0.0
2018-Jun-16 16:01N 29°19' W 094°48'0 0.0
2018-Jun-16 15:31N 29°19' W 094°48'0 0.0
2018-Jun-16 15:00N 29°19' W 094°48'0 0.0
2018-Jun-16 14:30N 29°19' W 094°48'0 0.0
2018-Jun-16 14:01N 29°19' W 094°48'0 0.0
2018-Jun-16 13:31N 29°19' W 094°48'0 0.0
2018-Jun-16 13:00N 29°19' W 094°48'0 0.0
2018-Jun-16 12:30N 29°19' W 094°48'1 2.2
2018-Jun-16 12:00N 29°19' W 094°47'29 9.3
2018-Jun-16 08:51N 28°57' W 094°25'512.5
2018-Jun-16 08:27N 28°52' W 094°25'48615.7
2018-Jun-15 01:26N 21°50' W 089°58'715.7
2018-Jun-15 01:00N 21°45' W 089°54'816.1
2018-Jun-15 00:30N 21°38' W 089°49'815.8
2018-Jun-15 00:00N 21°32' W 089°44'714.2
2018-Jun-14 23:30N 21°25' W 089°41'5 7.6
2018-Jun-14 22:53N 21°21' W 089°41'0 0.0
2018-Jun-14 22:23N 21°21' W 089°41'0 0.0
2018-Jun-14 21:41N 21°21' W 089°41'0 0.0
2018-Jun-14 21:28N 21°21' W 089°41'0 0.0
2018-Jun-14 20:58N 21°21' W 089°41'0 0.0
2018-Jun-14 20:28N 21°21' W 089°41'0 0.0
2018-Jun-14 19:57N 21°21' W 089°41'0 0.0
2018-Jun-14 19:28N 21°21' W 089°41'0 0.0
2018-Jun-14 19:00N 21°21' W 089°41'0 0.0
2018-Jun-14 18:30N 21°21' W 089°41'0 0.0
2018-Jun-14 18:00N 21°21' W 089°41'0 0.0
2018-Jun-14 17:28N 21°21' W 089°41'0 0.0
2018-Jun-14 17:00N 21°21' W 089°41'0 0.0
2018-Jun-14 16:30N 21°21' W 089°41'0 0.0
2018-Jun-14 15:59N 21°21' W 089°41'0 0.0
2018-Jun-14 15:26N 21°21' W 089°41'0 0.0
2018-Jun-14 14:59N 21°21' W 089°41'0 0.1
2018-Jun-14 14:29N 21°21' W 089°41'3 6.0
2018-Jun-14 14:00N 21°23' W 089°41'611.7
2018-Jun-14 13:30N 21°29' W 089°40'918.3
2018-Jun-14 13:00N 21°37' W 089°34'1019.3
2018-Jun-14 12:30N 21°43' W 089°26'918.7
2018-Jun-14 11:59N 21°47' W 089°17'  

Dump ship's entire track history